createdAt,value
2022-11-01T00:04:53.020Z,3.90
2022-11-01T00:14:57.684Z,4.20
2022-11-01T00:25:00.920Z,4.30
2022-11-01T00:35:06.790Z,4.60
2022-11-01T00:45:11.107Z,4.70
2022-11-01T00:55:16.111Z,4.80
2022-11-01T01:05:19.681Z,5.00
2022-11-01T01:15:24.367Z,5.60
2022-11-01T01:25:27.681Z,5.20
2022-11-01T01:35:32.415Z,5.30
2022-11-01T01:45:38.921Z,5.70
2022-11-01T01:55:51.279Z,5.30
2022-11-01T02:05:58.748Z,5.50
2022-11-01T02:16:21.910Z,5.50
2022-11-01T02:26:55.940Z,5.90
2022-11-01T02:37:05.484Z,5.60
2022-11-01T02:47:11.972Z,5.70
2022-11-01T02:57:32.297Z,5.60
2022-11-01T03:07:35.703Z,5.50
2022-11-01T03:17:50.878Z,5.60
2022-11-01T03:27:56.324Z,5.70
2022-11-01T03:38:07.603Z,5.90
2022-11-01T03:48:11.587Z,5.60
2022-11-01T03:58:16.263Z,5.70
2022-11-01T04:08:19.655Z,5.70
2022-11-01T04:18:43.870Z,5.40
2022-11-01T04:28:57.143Z,5.90
2022-11-01T04:39:02.135Z,6.10
2022-11-01T04:49:05.399Z,5.80
2022-11-01T04:59:09.993Z,6.30
2022-11-01T05:09:13.304Z,6.30
2022-11-01T05:19:18.626Z,6.30
2022-11-01T05:39:38.059Z,6.00
2022-11-01T05:49:41.328Z,6.10
2022-11-01T05:59:46.308Z,6.20
2022-11-01T06:09:49.596Z,6.40
2022-11-01T06:19:54.354Z,6.50
2022-11-01T06:29:57.632Z,7.00
2022-11-01T06:40:02.321Z,7.20
2022-11-01T06:50:06.730Z,7.30
2022-11-01T07:00:13.445Z,7.70
2022-11-01T07:20:21.769Z,8.20
2022-11-01T07:30:25.561Z,8.50
2022-11-01T07:40:30.599Z,8.70
2022-11-01T07:50:35.439Z,9.20
2022-11-01T08:00:41.053Z,9.60
2022-11-01T08:10:45.049Z,9.70
2022-11-01T08:20:50.409Z,9.20
2022-11-01T08:30:53.714Z,9.60
2022-11-01T08:40:58.574Z,9.80
2022-11-01T08:51:03.571Z,10.30
2022-11-01T09:01:08.388Z,10.30
2022-11-01T09:11:11.792Z,10.60
2022-11-01T09:21:17.202Z,10.60
2022-11-01T09:31:21.592Z,10.90
2022-11-01T09:41:36.873Z,11.30
2022-11-01T09:51:40.304Z,11.80
2022-11-01T10:01:54.626Z,12.00
2022-11-01T10:12:13.672Z,16.80
2022-11-01T10:22:29.228Z,20.00
2022-11-01T10:32:40.598Z,20.80
2022-11-01T10:42:45.635Z,21.70
2022-11-01T10:52:54.087Z,23.60
2022-11-01T11:03:02.174Z,28.60
2022-11-01T11:13:09.699Z,32.70
2022-11-01T11:23:14.398Z,36.20
2022-11-01T11:33:20.006Z,36.30
2022-11-01T11:43:31.761Z,36.70
2022-11-01T11:53:35.375Z,36.40
2022-11-01T12:03:48.379Z,36.40
2022-11-01T12:14:03.273Z,35.80
2022-11-01T12:24:18.054Z,35.80
2022-11-01T12:34:25.931Z,34.90
2022-11-01T12:44:37.405Z,33.20
2022-11-01T12:54:44.429Z,32.90
2022-11-01T13:04:55.271Z,32.80
2022-11-01T13:15:09.949Z,31.40
2022-11-01T13:25:21.921Z,29.40
2022-11-01T13:35:43.240Z,29.20
2022-11-01T13:46:22.732Z,26.10
2022-11-01T13:56:33.998Z,23.80
2022-11-01T14:06:39.867Z,21.80
2022-11-01T14:27:20.280Z,17.10
2022-11-01T14:37:27.361Z,15.20
2022-11-01T14:47:40.868Z,14.20
2022-11-01T14:57:45.393Z,13.20
2022-11-01T15:07:54.687Z,12.50
2022-11-01T15:18:00.618Z,11.60
2022-11-01T15:28:06.782Z,11.20
2022-11-01T15:38:20.741Z,10.60
2022-11-01T15:48:30.044Z,10.20
2022-11-01T15:58:37.933Z,10.00
2022-11-01T16:08:48.061Z,9.80
2022-11-01T16:18:54.908Z,9.60
2022-11-01T16:28:59.569Z,9.30
2022-11-01T16:39:19.337Z,9.40
2022-11-01T16:49:27.097Z,8.70
2022-11-01T16:59:36.867Z,8.50
2022-11-01T17:09:41.540Z,8.30
2022-11-01T17:19:50.631Z,8.10
2022-11-01T17:29:55.972Z,7.70
2022-11-01T17:39:59.670Z,7.20
2022-11-01T17:50:04.606Z,6.70
2022-11-01T18:00:10.032Z,6.90
2022-11-01T18:10:22.132Z,6.70
2022-11-01T18:20:42.695Z,6.50
2022-11-01T18:30:52.621Z,6.50
2022-11-01T18:41:00.342Z,6.40
2022-11-01T18:51:14.401Z,6.40
2022-11-01T19:01:20.615Z,6.40
2022-11-01T19:11:28.067Z,6.40
2022-11-01T19:21:35.754Z,6.60
2022-11-01T19:31:46.092Z,7.00
2022-11-01T19:41:49.980Z,6.20
2022-11-01T19:52:18.083Z,6.40
2022-11-01T20:02:23.856Z,6.50
2022-11-01T20:12:28.601Z,6.70
2022-11-01T20:22:31.997Z,6.90
2022-11-01T20:32:37.913Z,6.90
2022-11-01T20:42:41.564Z,7.10
2022-11-01T20:52:46.727Z,7.10
2022-11-01T21:02:50.542Z,7.10
2022-11-01T21:12:55.324Z,7.10
2022-11-01T21:23:03.568Z,6.90
2022-11-01T21:33:31.484Z,7.00
2022-11-01T21:43:35.695Z,6.90
2022-11-01T21:53:40.923Z,6.90
2022-11-01T22:03:44.271Z,7.00
2022-11-01T22:13:49.030Z,7.10
2022-11-01T22:23:52.353Z,7.30
2022-11-01T22:33:59.057Z,7.60
2022-11-01T22:44:06.002Z,8.20
2022-11-01T22:54:31.534Z,8.20
2022-11-01T23:04:36.791Z,8.60
2022-11-01T23:14:46.752Z,8.50
2022-11-01T23:24:52.033Z,8.70
2022-11-01T23:35:10.239Z,8.80
2022-11-01T23:45:27.152Z,8.90
2022-11-01T23:55:38.036Z,8.90
